LXGBLPMA

Guest
Details From LXGB - Gibraltar
To LPMA - Madeira
Flight Number -
Tags generated
Created
Modified
Stats Distance 656 nm / 1,214 km
Max Altitude 34,000 ft / 10,363 m
Waypoints 8
Social Downloads 7
Likes 0
Share VATSIM

Download

Looking for another format? Having issues loading an existing format? Contact us
Advertisement - Login to hide

Notes

Basic altitude profile: - Ascent Rate: 2500ft/min - Ascent Speed: 250kts - Cruise Altitude: 35000ft - Cruise Speed: 396kts - Descent Rate: 1500ft/min - Descent Speed: 250kts Options: - Use NATs: yes - Use PACOTS: yes - Use low airways: yes - Use high airways: yes

Route

LXGB PIREN UZ5 VFA UN747 NARTA UN745 SNT LPMA

ID Type Via Altitude Latitude Longitude Leg Dist Tot Dist Heading (true) Name
O LXGB APT - 0 ft / 0 m 36.15121˚ -5.34966˚ - 0 nm - Gibraltar
PIREN FIX - 34,000 ft / 10,363 m 36.83333˚ -7.38333˚ 106 nm 106 nm 293° / 292° -
VFA VOR UZ5 (AWY-HI) 28,000 ft / 8,534 m 37.01352˚ -7.97501˚ 30 nm 136 nm 291° / 291° FARO VOR-DME
NARTA FIX UN747 (AWY-HI) 34,000 ft / 10,363 m 36.05639˚ -12.55806˚ 228 nm 365 nm 257° / 254° -
GALPA FIX UN745 (AWY-HI) 30,900 ft / 9,418 m 34.39806˚ -14.73028˚ 145 nm 511 nm 228° / 226° -
RULET FIX UN745 (AWY-HI) 28,200 ft / 8,595 m 34.25167˚ -14.91556˚ 12 nm 523 nm 226° / 226° -
SNT VOR UN745 (AWY-HI) 18,500 ft / 5,639 m 33.09028˚ -16.35056˚ 100 nm 623 nm 226° / 225° PORTO SANTO VOR-DME
O LPMA APT - 0 ft / 0 m 32.69770˚ -16.77445˚ 31 nm 655 nm 222° / 222° Madeira

Altitude Profile

Advertisement - Login to hide

Weather


0- 5 10 15 20 25 30 35+ Temperature / ° C

Clouds and Precipitation
Forecast for 2017-12-15 00:00 UTC. Updated 12 minutes ago

Ground ~20,000 ft ~40,000 ft Winds

LXGB

Details ICAO LXGB (GIB)
Name Gibraltar
Region Gibralter
Timezone Europe/Gibraltar (UTC+1.0)
Stats Elevation 15 ft / 5 m (AMSL)
Location 36.151209° -5.349664°
Runways 1
Magnetic Variation 1.123° W

METAR

LXGB 142050Z AUTO 27013KT 9999 // BKN021/// BKN200/// 15/13 Q1022

Decode

TAF

Not found

Departure Runways

ID Width Length Bearing (true) Bearing (mag) Surface Threshold Offset Overrun Length
27 151 ft / 46 m 5,992 ft / 1,826 m 267.56° 268.68° Asphalt 367 ft / 112 m 89 ft / 27 m
9 151 ft / 46 m 5,992 ft / 1,826 m 87.54° 88.66° Asphalt 299 ft / 91 m 52 ft / 16 m

LPMA

Details ICAO LPMA (FNC)
Name Madeira
Region Portugal
Timezone Atlantic/Madeira (UTC+0.0)
Stats Elevation 192 ft / 59 m (AMSL)
Location 32.697704° -16.774449°
Runways 1
Magnetic Variation 4.982° W

METAR

LPMA 142130Z 35005KT 290V040 9999 FEW016 18/12 Q1028

Decode

TAF

TAF LPMA 141700Z 1418/1518 01010KT 9999 SCT015 TEMPO 1418/1518 BKN015

Decode

Destination Runways

ID Width Length Bearing (true) Bearing (mag) Surface Threshold Offset Overrun Length
05 141 ft / 43 m 8,683 ft / 2,647 m 42.98° 47.96° Asphalt 472 ft / 144 m 0 ft / 0 m
23 141 ft / 43 m 8,683 ft / 2,647 m 222.99° 227.97° Asphalt 466 ft / 142 m 0 ft / 0 m

Popular Alternatives